Time;durP1;ratioP1;P1;durP2;ratioP2;P2;SDS_P1;SDS_P2;PMS_P1;PMS_P2;Temp;Humidity;BMP_temperature;BMP_pressure;BME280_temperature;BME280_humidity;BME280_pressure;Samples;Min_cycle;Max_cycle;Signal;HPM_P1;HPM_P2
2022/05/08 00:00:37;;;;;;;20.38;4.97;;;;;;;21.59;52.58;100037.72;7311443;19;155078;-39
2022/05/08 00:03:02;;;;;;;17.10;5.18;;;;;;;21.67;51.36;100053.59;7312730;19;153852;-39
2022/05/08 00:05:27;;;;;;;41.20;7.72;;;;;;;21.70;52.01;100048.09;7313664;19;129034;-38
2022/05/08 00:07:53;;;;;;;26.23;5.93;;;;;;;21.69;52.11;100050.84;7311371;19;136046;-39
2022/05/08 00:10:19;;;;;;;20.20;5.43;;;;;;;21.68;51.97;100050.00;7314591;19;129142;-39
2022/05/08 00:12:45;;;;;;;24.70;5.27;;;;;;;21.68;51.99;100043.97;7314403;19;129117;-39
2022/05/08 00:15:11;;;;;;;19.88;5.22;;;;;;;21.67;52.08;100040.50;7310406;19;130872;-39
2022/05/08 00:17:36;;;;;;;28.25;6.13;;;;;;;21.66;51.89;100044.09;7313735;19;130357;-39
2022/05/08 00:20:07;;;;;;;38.53;7.60;;;;;;;21.68;51.65;100041.34;7311983;19;154921;-39
2022/05/08 00:22:32;;;;;;;25.58;5.68;;;;;;;21.66;51.82;100046.72;7313396;19;130920;-38
2022/05/08 00:24:59;;;;;;;38.20;7.13;;;;;;;21.68;52.00;100050.00;7310172;19;129419;-37
2022/05/08 00:27:24;;;;;;;23.60;5.10;;;;;;;21.53;52.45;100025.16;7310697;19;130257;-39
2022/05/08 00:29:49;;;;;;;30.60;5.95;;;;;;;21.64;51.26;100042.53;7311759;19;154455;-37
2022/05/08 00:32:15;;;;;;;16.58;4.45;;;;;;;21.69;52.68;100041.22;7312089;19;154596;-39
2022/05/08 00:34:40;;;;;;;17.53;4.23;;;;;;;21.68;52.34;100034.31;7310565;19;158493;-40
2022/05/08 00:37:05;;;;;;;17.30;5.25;;;;;;;21.54;51.80;100021.56;7311107;19;158969;-40
2022/05/08 00:39:32;;;;;;;31.90;6.28;;;;;;;21.64;51.84;100032.91;7313096;19;135230;-39
2022/05/08 00:41:58;;;;;;;23.70;5.32;;;;;;;21.65;52.17;100034.56;7313386;19;129270;-39
2022/05/08 00:44:23;;;;;;;20.98;5.50;;;;;;;21.59;52.42;100023.78;7312200;19;131077;-39
2022/05/08 00:46:48;;;;;;;27.30;5.77;;;;;;;21.67;52.30;100030.03;7310508;19;158712;-39
2022/05/08 00:49:14;;;;;;;21.10;5.03;;;;;;;21.65;52.23;100026.72;7312908;19;128940;-38
2022/05/08 00:51:39;;;;;;;21.38;5.18;;;;;;;21.62;52.39;100029.59;7312968;19;129866;-39
2022/05/08 00:54:04;;;;;;;22.35;5.13;;;;;;;21.66;52.07;100031.00;7310266;19;158308;-40
2022/05/08 00:56:30;;;;;;;22.48;5.93;;;;;;;21.64;51.64;100038.16;7312349;19;130252;-38
2022/05/08 00:58:56;;;;;;;19.27;5.25;;;;;;;21.63;52.25;100030.44;7312567;19;135408;-39
2022/05/08 01:01:22;;;;;;;28.63;5.80;;;;;;;21.63;51.68;100023.44;7312049;19;129082;-38
2022/05/08 01:03:47;;;;;;;33.90;6.47;;;;;;;21.64;51.11;100027.69;7310748;19;129521;-37
2022/05/08 01:06:15;;;;;;;20.25;4.82;;;;;;;21.63;52.04;100020.81;7308808;19;158612;-40
2022/05/08 01:08:45;;;;;;;11.95;4.50;;;;;;;21.66;51.92;100025.78;7312188;19;130558;-38
2022/05/08 01:11:11;;;;;;;26.40;5.20;;;;;;;21.63;52.27;100027.81;7310680;19;128874;-39
2022/05/08 01:13:37;;;;;;;26.58;6.35;;;;;;;21.69;52.31;100030.75;7310867;19;129940;-40
2022/05/08 01:16:07;;;;;;;22.23;5.45;;;;;;;21.68;51.55;100039.53;7310730;19;130961;-38
2022/05/08 01:18:32;;;;;;;17.95;4.85;;;;;;;21.64;51.58;100032.91;7312321;19;129223;-39
2022/05/08 01:20:57;;;;;;;24.30;5.38;;;;;;;21.65;52.10;100033.75;7311809;19;129573;-39
2022/05/08 01:23:23;;;;;;;9.85;4.18;;;;;;;21.64;51.97;100038.16;7309761;19;158647;-39
2022/05/08 01:25:54;;;;;;;19.05;4.60;;;;;;;21.64;52.25;100043.38;7309103;19;159275;-38
2022/05/08 01:28:20;;;;;;;26.45;5.90;;;;;;;21.65;51.94;100045.03;7309626;19;130400;-39
2022/05/08 01:30:47;;;;;;;18.98;4.38;;;;;;;21.63;51.76;100039.13;7310794;19;129364;-39
2022/05/08 01:33:13;;;;;;;22.83;4.93;;;;;;;21.67;51.92;100042.28;7311017;19;129967;-39
2022/05/08 01:35:40;;;;;;;35.88;6.05;;;;;;;21.62;51.28;100041.84;7311383;19;130214;-38
2022/05/08 01:38:07;;;;;;;20.42;5.10;;;;;;;21.63;51.98;100044.34;7312317;19;129074;-39
2022/05/08 01:40:32;;;;;;;20.85;4.90;;;;;;;21.63;52.08;100038.28;7311473;19;129158;-39
2022/05/08 01:42:58;;;;;;;12.77;4.25;;;;;;;21.59;51.75;100037.72;7311995;19;132733;-38
2022/05/08 01:45:24;;;;;;;40.37;7.47;;;;;;;21.55;52.23;100023.22;7308746;19;129691;-38
2022/05/08 01:50:37;;;;;;;18.87;4.67;;;;;;;21.69;51.81;100035.13;7311238;19;129110;-39
2022/05/08 01:53:02;;;;;;;27.20;5.80;;;;;;;21.64;51.91;100035.53;7311501;19;132677;-39
2022/05/08 01:55:28;;;;;;;29.85;6.10;;;;;;;21.66;52.09;100036.25;7310714;19;130428;-39
2022/05/08 01:57:53;;;;;;;25.60;5.18;;;;;;;21.56;52.08;100014.44;7310482;19;129079;-38
2022/05/08 02:00:20;;;;;;;19.95;4.60;;;;;;;21.58;51.78;100024.75;7310246;19;129257;-39
2022/05/08 02:02:48;;;;;;;19.42;4.63;;;;;;;21.63;51.46;100035.66;7311418;19;130694;-37
2022/05/08 02:05:15;;;;;;;18.35;4.45;;;;;;;21.62;50.51;100044.47;7307178;19;129272;-38
2022/05/08 02:07:41;;;;;;;18.67;4.32;;;;;;;21.64;51.51;100046.00;7308299;19;128894;-39
2022/05/08 02:10:06;;;;;;;26.35;5.07;;;;;;;21.63;51.11;100049.59;7310017;19;130295;-39
2022/05/08 02:12:31;;;;;;;19.70;4.80;;;;;;;21.52;51.55;100033.94;7311369;19;130100;-39
2022/05/08 02:14:57;;;;;;;30.95;6.07;;;;;;;21.63;51.43;100052.22;7306237;19;159312;-39
2022/05/08 02:17:22;;;;;;;32.13;5.75;;;;;;;21.60;51.38;100052.44;7308747;19;153703;-38
2022/05/08 02:19:47;;;;;;;27.00;5.47;;;;;;;21.63;51.70;100048.75;7309910;19;128860;-38
2022/05/08 02:22:13;;;;;;;22.43;4.77;;;;;;;21.67;51.13;100053.59;7308226;19;159451;-38
2022/05/08 02:24:38;;;;;;;20.20;4.70;;;;;;;21.61;51.66;100066.34;7309198;19;130332;-39
2022/05/08 02:27:04;;;;;;;27.65;5.55;;;;;;;21.54;51.30;100047.72;7307251;19;154769;-39
2022/05/08 02:29:30;;;;;;;24.85;5.07;;;;;;;21.58;51.54;100064.84;7310073;19;128860;-40
2022/05/08 02:31:55;;;;;;;26.93;5.17;;;;;;;21.62;51.70;100065.38;7308767;19;130189;-38
2022/05/08 02:34:20;;;;;;;21.38;4.82;;;;;;;21.61;52.01;100064.59;7307915;19;151957;-38
2022/05/08 02:36:46;;;;;;;19.65;4.43;;;;;;;21.58;51.80;100062.22;7307993;19;155578;-39
2022/05/08 02:39:12;;;;;;;22.13;5.03;;;;;;;21.63;52.08;100067.06;7315878;19;128858;-39
2022/05/08 02:41:37;;;;;;;18.98;4.82;;;;;;;21.57;51.29;100054.47;7316284;19;130583;-39
2022/05/08 02:44:02;;;;;;;10.93;3.92;;;;;;;21.60;50.94;100068.13;7315181;19;143010;-39
2022/05/08 02:46:27;;;;;;;20.85;4.85;;;;;;;21.62;51.12;100061.00;7315588;19;128974;-39
2022/05/08 02:48:53;;;;;;;21.13;4.90;;;;;;;21.60;51.28;100062.09;7312427;19;154282;-38
2022/05/08 02:51:18;;;;;;;21.23;4.57;;;;;;;21.62;51.53;100060.16;7314587;19;159626;-39
2022/05/08 02:53:43;;;;;;;33.45;5.78;;;;;;;21.65;51.18;100058.13;7314437;19;159182;-39
2022/05/08 02:58:52;;;;;;;16.10;4.38;;;;;;;21.64;51.36;100064.31;7316688;19;129128;-39
2022/05/08 03:01:17;;;;;;;28.48;5.13;;;;;;;21.58;51.29;100064.84;7315145;19;145794;-39
2022/05/08 03:03:43;;;;;;;16.63;4.93;;;;;;;21.62;51.22;100063.63;7314025;19;159230;-39
2022/05/08 03:06:08;;;;;;;37.28;6.57;;;;;;;21.61;51.50;100059.34;7313099;19;154575;-38
2022/05/08 03:08:33;;;;;;;25.35;5.55;;;;;;;21.60;51.27;100062.91;7311072;19;144723;-38
2022/05/08 03:13:43;;;;;;;18.33;4.47;;;;;;;21.56;51.00;100058.06;7314608;19;128924;-38
2022/05/08 03:16:10;;;;;;;22.17;4.95;;;;;;;21.57;51.54;100068.41;7313265;19;154734;-37
2022/05/08 03:18:36;;;;;;;25.33;5.22;;;;;;;21.61;51.10;100069.81;7315388;19;129795;-38
2022/05/08 03:21:02;;;;;;;17.80;4.57;;;;;;;21.62;51.66;100075.84;7315043;19;130100;-38
2022/05/08 03:23:28;;;;;;;15.65;4.47;;;;;;;21.54;51.24;100062.59;7314564;19;129207;-38
2022/05/08 03:25:53;;;;;;;24.05;5.03;;;;;;;21.62;51.80;100079.31;7315715;19;128998;-38
2022/05/08 03:28:19;;;;;;;27.30;5.03;;;;;;;21.59;51.25;100082.19;7314446;19;129236;-38
2022/05/08 03:30:45;;;;;;;12.85;3.90;;;;;;;21.59;51.26;100082.19;7315884;19;130209;-37
2022/05/08 03:33:10;;;;;;;23.27;4.82;;;;;;;21.58;51.47;100075.31;7315318;19;129708;-38
2022/05/08 03:35:36;;;;;;;19.77;4.50;;;;;;;21.58;51.39;100077.94;7315239;19;129028;-39
2022/05/08 03:38:02;;;;;;;18.67;4.38;;;;;;;21.59;51.58;100087.41;7315208;19;129568;-39
2022/05/08 03:40:27;;;;;;;28.42;5.53;;;;;;;21.61;50.94;100085.50;7312379;19;157391;-39
2022/05/08 03:42:53;;;;;;;21.20;4.72;;;;;;;21.58;51.16;100080.53;7314955;19;130367;-40
2022/05/08 03:45:18;;;;;;;28.98;5.45;;;;;;;21.51;51.22;100070.69;7311556;19;129039;-37
2022/05/08 03:47:44;;;;;;;20.20;4.10;;;;;;;21.59;50.21;100081.34;7313078;19;129501;-39
2022/05/08 03:50:09;;;;;;;18.02;4.72;;;;;;;21.61;50.91;100085.50;7311766;19;129716;-39
2022/05/08 03:52:34;;;;;;;16.20;4.35;;;;;;;21.57;50.30;100089.34;7313128;19;144825;-38
2022/05/08 03:55:00;;;;;;;23.10;4.82;;;;;;;21.53;51.41;100085.31;7311237;19;153372;-39
2022/05/08 03:57:26;;;;;;;30.17;5.83;;;;;;;21.54;50.91;100084.34;7312932;19;128896;-39
2022/05/08 03:59:52;;;;;;;21.67;4.30;;;;;;;21.55;51.52;100091.25;7313979;19;129377;-39
2022/05/08 04:02:17;;;;;;;23.77;5.00;;;;;;;21.57;51.38;100093.72;7314267;19;132588;-37
2022/05/08 04:04:42;;;;;;;25.43;4.83;;;;;;;21.58;51.30;100096.25;7310497;19;155350;-39
2022/05/08 04:07:07;;;;;;;20.07;4.63;;;;;;;21.55;50.83;100088.63;7311865;19;154056;-39
2022/05/08 04:09:32;;;;;;;41.50;6.83;;;;;;;21.47;51.29;100082.38;7311477;19;158721;-38
2022/05/08 04:11:58;;;;;;;22.17;4.70;;;;;;;21.57;51.05;100084.09;7313478;19;159512;-39
2022/05/08 04:14:23;;;;;;;21.10;4.90;;;;;;;21.55;50.49;100096.47;7310612;19;155607;-38
2022/05/08 04:16:49;;;;;;;21.83;4.50;;;;;;;21.57;51.00;100102.41;7311993;19;153022;-39
2022/05/08 04:19:14;;;;;;;24.77;5.00;;;;;;;21.56;50.70;100095.53;7313896;19;131369;-38
2022/05/08 04:21:40;;;;;;;16.92;4.13;;;;;;;21.55;50.54;100101.69;7310987;19;150296;-39
2022/05/08 04:24:17;;;;;;;19.17;4.17;;;;;;;21.55;51.11;100101.69;7311828;19;154920;-39
2022/05/08 04:26:43;;;;;;;25.70;5.35;;;;;;;21.56;51.30;100103.38;7313136;19;129737;-39
2022/05/08 04:29:08;;;;;;;21.92;4.68;;;;;;;21.54;50.93;100102.66;7311810;19;130774;-39
2022/05/08 04:31:33;;;;;;;33.83;6.07;;;;;;;21.52;50.99;100099.34;7311608;19;158696;-39
2022/05/08 04:33:59;;;;;;;17.35;4.28;;;;;;;21.56;50.13;100103.38;7311434;19;155178;-37
2022/05/08 04:36:24;;;;;;;24.30;4.70;;;;;;;21.57;50.65;100105.03;7313345;19;128760;-38
2022/05/08 04:38:49;;;;;;;21.45;4.40;;;;;;;21.55;50.93;100104.31;7312160;19;158356;-38
2022/05/08 04:41:15;;;;;;;19.57;4.67;;;;;;;21.55;50.93;100106.94;7311258;19;160188;-39
2022/05/08 04:43:40;;;;;;;15.37;4.20;;;;;;;21.54;50.82;100114.91;7311654;19;137194;-38
2022/05/08 04:46:05;;;;;;;28.77;5.38;;;;;;;21.54;50.55;100112.28;7312012;19;129016;-38
2022/05/08 04:48:31;;;;;;;24.85;5.25;;;;;;;21.56;51.06;100118.25;7309433;19;158581;-39
2022/05/08 04:50:56;;;;;;;22.33;4.63;;;;;;;21.55;50.86;100121.81;7311667;19;129385;-38
2022/05/08 04:53:21;;;;;;;18.90;4.07;;;;;;;21.55;51.05;100117.41;7311693;19;154728;-38
2022/05/08 04:55:46;;;;;;;25.67;4.85;;;;;;;21.49;50.35;100107.44;7311816;19;128754;-38
2022/05/08 04:58:12;;;;;;;20.98;4.03;;;;;;;21.55;51.04;100116.59;7312340;19;137816;-39
2022/05/08 05:00:37;;;;;;;23.52;4.78;;;;;;;21.54;50.89;100125.38;7310825;19;158638;-38
2022/05/08 05:03:03;;;;;;;29.40;5.43;;;;;;;21.54;51.25;100130.59;7311880;19;128888;-38
2022/05/08 05:05:28;;;;;;;42.95;7.47;;;;;;;21.53;50.75;100137.66;7311578;19;136339;-38
2022/05/08 05:07:54;;;;;;;25.55;5.45;;;;;;;21.51;51.03;100126.47;7311476;19;130073;-39
2022/05/08 05:10:19;;;;;;;25.45;4.35;;;;;;;21.54;50.86;100135.84;7312690;19;129641;-38
2022/05/08 05:12:45;;;;;;;22.45;4.78;;;;;;;21.53;50.41;100135.03;7313000;19;129834;-39
2022/05/08 05:15:11;;;;;;;19.98;4.38;;;;;;;21.53;50.90;100135.03;7309155;19;129081;-39
2022/05/08 05:17:36;;;;;;;28.08;5.18;;;;;;;21.48;50.98;100138.97;7310700;19;129606;-40
2022/05/08 05:20:03;;;;;;;30.63;5.70;;;;;;;21.47;50.05;100134.72;7310301;19;129734;-39
2022/05/08 05:22:28;;;;;;;;;;;;;;;21.59;50.68;100134.53;7312073;19;129059;-38
2022/05/08 05:24:57;;;;;;;31.33;5.83;;;;;;;21.51;50.82;100141.34;7307726;19;129407;-38
2022/05/08 05:27:23;;;;;;;13.02;4.10;;;;;;;21.41;50.59;100128.19;7310245;19;137387;-39
2022/05/08 05:29:48;;;;;;;31.70;5.72;;;;;;;21.52;50.96;100138.59;7310061;19;129601;-38
2022/05/08 05:32:14;;;;;;;17.85;4.22;;;;;;;21.51;50.92;100147.41;7312502;19;129080;-38
2022/05/08 05:34:39;;;;;;;22.23;4.80;;;;;;;21.52;51.11;100149.06;7309657;19;129689;-39
2022/05/08 05:37:04;;;;;;;23.15;4.93;;;;;;;21.50;50.30;100153.56;7309469;19;159230;-39
2022/05/08 05:39:30;;;;;;;34.03;5.93;;;;;;;21.50;50.26;100161.41;7311320;19;131117;-37
2022/05/08 05:41:55;;;;;;;25.77;5.78;;;;;;;21.47;50.61;100161.69;7307830;19;154615;-39
2022/05/08 05:44:20;;;;;;;19.23;4.35;;;;;;;21.53;51.02;100161.19;7308743;19;154110;-37
2022/05/08 05:49:30;;;;;;;23.60;5.45;;;;;;;21.49;51.21;100169.41;7310680;19;129513;-39
2022/05/08 05:51:56;;;;;;;29.77;5.28;;;;;;;21.51;51.05;100184.03;7310339;19;128919;-39
2022/05/08 05:54:21;;;;;;;27.43;5.27;;;;;;;21.48;51.06;100162.53;7310078;19;129282;-39
2022/05/08 05:56:50;;;;;;;26.40;4.78;;;;;;;21.58;51.06;100176.50;7310364;19;129571;-38
2022/05/08 05:59:15;;;;;;;19.67;4.50;;;;;;;21.55;51.32;100185.44;7309176;19;129919;-38
2022/05/08 06:01:41;;;;;;;18.63;4.57;;;;;;;21.52;50.50;100179.59;7311004;19;129321;-39
2022/05/08 06:04:06;;;;;;;27.67;5.20;;;;;;;21.51;50.88;100178.81;7309834;19;130042;-39
2022/05/08 06:06:31;;;;;;;18.13;4.40;;;;;;;21.50;51.12;100182.34;7309910;19;157777;-38
2022/05/08 06:08:57;;;;;;;26.05;5.25;;;;;;;21.54;50.86;100183.78;7307156;19;158483;-38
2022/05/08 06:11:22;;;;;;;22.48;4.32;;;;;;;21.44;50.85;100182.03;7308299;19;154271;-38
2022/05/08 06:13:47;;;;;;;31.77;5.28;;;;;;;21.45;51.31;100194.97;7311972;19;154114;-39
2022/05/08 06:16:12;;;;;;;44.92;6.25;;;;;;;21.52;51.48;100196.16;7312824;19;155017;-39
2022/05/08 06:18:38;;;;;;;25.42;4.90;;;;;;;21.36;50.88;100174.81;7313623;19;158383;-38
2022/05/08 06:21:03;;;;;;;17.70;4.55;;;;;;;21.45;51.21;100197.59;7314775;19;155558;-39
2022/05/08 06:23:28;;;;;;;21.38;4.82;;;;;;;21.49;51.71;100198.19;7315795;19;130001;-37
2022/05/08 06:25:54;;;;;;;39.80;7.18;;;;;;;21.56;50.37;100192.34;7312601;19;159099;-38
2022/05/08 06:28:19;;;;;;;38.00;6.57;;;;;;;21.60;50.85;100193.72;7312360;19;139321;-38
2022/05/08 06:30:48;;;;;;;7.72;3.67;;;;;;;21.64;51.41;100194.31;7315191;19;129760;-39
2022/05/08 06:33:13;;;;;;;10.48;3.70;;;;;;;21.55;51.59;100203.75;7315892;19;129161;-40
2022/05/08 06:35:39;;;;;;;23.05;5.30;;;;;;;21.50;51.89;100205.91;7314547;19;152856;-39
2022/05/08 06:38:05;;;;;;;23.30;4.93;;;;;;;21.51;51.43;100202.34;7316030;19;130422;-38
2022/05/08 06:40:31;;;;;;;28.38;5.18;;;;;;;21.49;51.23;100196.41;7314471;19;130093;-38
2022/05/08 06:42:56;;;;;;;25.15;5.45;;;;;;;21.47;51.92;100207.97;7314498;19;153149;-38
2022/05/08 06:45:24;;;;;;;40.67;7.10;;;;;;;21.45;50.89;100199.41;7309851;19;158557;-39
2022/05/08 06:47:50;;;;;;;27.73;5.28;;;;;;;21.50;51.95;100198.06;7314320;19;130369;-38
2022/05/08 06:50:17;;;;;;;39.58;5.75;;;;;;;21.41;52.45;100188.34;7313721;19;130410;-39
2022/05/08 06:52:43;;;;;;;11.65;4.22;;;;;;;21.50;51.89;100194.63;7313997;19;129104;-38
2022/05/08 06:55:08;;;;;;;25.20;4.97;;;;;;;21.53;51.19;100204.84;7311551;19;158687;-38
2022/05/08 06:57:33;;;;;;;19.75;4.25;;;;;;;21.47;50.81;100195.69;7313402;19;130382;-38
2022/05/08 07:02:43;;;;;;;25.05;4.68;;;;;;;21.46;51.30;100199.28;7314732;19;131550;-39
2022/05/08 07:05:08;;;;;;;12.88;4.13;;;;;;;21.46;51.38;100199.28;7313134;19;130383;-39
2022/05/08 07:07:33;;;;;;;30.42;5.85;;;;;;;21.55;51.68;100203.75;7313993;19;130550;-40
2022/05/08 07:09:58;;;;;;;29.42;5.50;;;;;;;21.53;52.43;100204.84;7313643;19;153962;-38
2022/05/08 07:12:24;;;;;;;18.65;4.90;;;;;;;21.55;52.54;100206.34;7311871;19;154040;-39
2022/05/08 07:14:49;;;;;;;27.02;5.30;;;;;;;21.51;52.61;100209.34;7313067;19;130922;-38
2022/05/08 07:17:14;;;;;;;23.60;4.77;;;;;;;21.38;52.12;100190.38;7311702;19;158472;-38
2022/05/08 07:19:39;;;;;;;30.10;5.87;;;;;;;21.48;52.19;100210.44;7312751;19;154432;-38
2022/05/08 07:22:05;;;;;;;33.87;5.80;;;;;;;21.45;52.25;100215.91;7311461;19;155079;-39
2022/05/08 07:24:30;;;;;;;46.30;7.23;;;;;;;21.44;52.32;100214.25;7308143;19;159890;-39
2022/05/08 07:26:57;;;;;;;20.13;4.37;;;;;;;21.45;51.63;100215.09;7311362;19;157250;-37
2022/05/08 07:29:22;;;;;;;25.88;5.10;;;;;;;21.45;51.86;100215.09;7312040;19;129361;-39
2022/05/08 07:31:47;;;;;;;25.10;5.38;;;;;;;21.46;51.38;100214.97;7314177;19;130379;-37
2022/05/08 07:36:56;;;;;;;29.70;5.70;;;;;;;21.49;52.98;100212.09;7313574;19;129498;-39
2022/05/08 07:39:22;;;;;;;19.50;4.10;;;;;;;21.52;52.22;100211.84;7314523;19;129373;-37
2022/05/08 07:41:47;;;;;;;23.88;4.35;;;;;;;21.47;52.60;100218.44;7314186;19;130623;-39
2022/05/08 07:44:12;;;;;;;24.90;5.03;;;;;;;21.55;52.41;100214.22;7312513;19;157920;-39
2022/05/08 07:46:38;;;;;;;12.23;3.90;;;;;;;21.51;52.20;100210.19;7313002;19;152213;-37
2022/05/08 07:49:03;;;;;;;35.22;5.90;;;;;;;21.50;51.87;100218.97;7311629;19;129369;-38
2022/05/08 07:51:28;;;;;;;27.67;5.10;;;;;;;21.51;51.81;100215.44;7313185;19;140255;-38
2022/05/08 07:53:54;;;;;;;20.90;4.75;;;;;;;21.50;52.94;100212.94;7311677;19;158345;-40
2022/05/08 07:56:19;;;;;;;20.80;3.90;;;;;;;21.46;52.24;100222.81;7313067;19;129791;-38
2022/05/08 07:58:44;;;;;;;20.95;4.13;;;;;;;21.49;52.28;100212.09;7312653;19;154627;-38
2022/05/08 08:01:10;;;;;;;31.05;5.53;;;;;;;21.57;51.07;100220.16;7311879;19;154912;-38
2022/05/08 08:03:35;;;;;;;40.35;6.28;;;;;;;21.49;53.12;100225.19;7314130;19;132698;-39
2022/05/08 08:06:01;;;;;;;36.88;6.15;;;;;;;21.46;53.02;100228.03;7309736;19;130013;-38
2022/05/08 08:08:27;;;;;;;37.53;6.20;;;;;;;21.37;53.03;100227.97;7312566;19;129148;-39
2022/05/08 08:10:56;;;;;;;24.20;4.45;;;;;;;21.39;52.98;100232.09;7312749;19;154192;-38
2022/05/08 08:13:23;;;;;;;26.67;4.30;;;;;;;21.32;53.64;100215.22;7312439;19;130339;-39
2022/05/08 08:15:48;;;;;;;29.95;5.15;;;;;;;21.42;52.83;100231.84;7311449;19;130418;-38
2022/05/08 08:18:15;;;;;;;36.35;5.72;;;;;;;21.42;53.44;100231.84;7313592;19;129410;-39
2022/05/08 08:20:40;;;;;;;39.92;5.80;;;;;;;21.44;52.95;100231.72;7311712;19;129540;-39
2022/05/08 08:23:06;;;;;;;34.65;5.65;;;;;;;21.42;53.13;100239.69;7311068;19;129676;-39
2022/05/08 08:25:31;;;;;;;51.13;7.22;;;;;;;21.47;53.34;100249.81;7309977;19;133006;-38
2022/05/08 08:27:57;;;;;;;31.83;5.40;;;;;;;21.47;52.83;100242.78;7311369;19;129086;-38
2022/05/08 08:30:22;;;;;;;28.15;4.35;;;;;;;21.45;53.28;100249.09;7312865;19;129592;-38
2022/05/08 08:32:48;;;;;;;26.88;4.82;;;;;;;21.48;53.18;100249.69;7309073;19;159117;-39
2022/05/08 08:35:14;;;;;;;28.50;4.60;;;;;;;21.44;52.79;100240.41;7308426;19;130344;-39
2022/05/08 08:37:39;;;;;;;37.20;4.70;;;;;;;21.39;52.96;100233.88;7311873;19;128918;-38
2022/05/08 08:40:05;;;;;;;25.23;4.30;;;;;;;21.47;52.99;100248.00;7311752;19;129632;-40
2022/05/08 08:42:31;;;;;;;21.15;4.35;;;;;;;21.50;53.03;100245.13;7309585;19;129685;-38
2022/05/08 08:47:52;;;;;;;25.67;4.28;;;;;;;21.46;53.65;100246.34;7312912;19;129193;-39
2022/05/08 08:50:18;;;;;;;19.70;3.58;;;;;;;21.44;52.74;100253.50;7312465;19;129277;-39
2022/05/08 08:52:45;;;;;;;16.85;3.47;;;;;;;21.49;53.60;100258.34;7312317;19;130251;-38
2022/05/08 08:55:11;;;;;;;21.13;3.92;;;;;;;21.45;53.35;100263.00;7310026;19;130297;-38
2022/05/08 08:57:37;;;;;;;22.50;4.28;;;;;;;21.38;52.81;100247.91;7311390;19;129261;-39
2022/05/08 09:00:07;;;;;;;24.98;4.07;;;;;;;21.49;53.28;100259.19;7311636;19;128976;-38
2022/05/08 09:02:34;;;;;;;24.33;4.38;;;;;;;21.52;53.26;100258.09;7313414;19;129357;-39
2022/05/08 09:05:07;;;;;;;22.42;4.10;;;;;;;21.48;53.24;100257.53;7309958;19;130748;-38
2022/05/08 09:07:43;;;;;;;29.20;4.53;;;;;;;21.49;53.76;100256.56;7312907;19;129375;-39
2022/05/08 09:10:21;;;;;;;14.52;3.50;;;;;;;21.47;53.59;100261.09;7312580;19;130378;-39
2022/05/08 09:12:52;;;;;;;34.72;5.28;;;;;;;21.48;53.72;100257.53;7311580;19;129471;-39
2022/05/08 09:15:26;;;;;;;26.08;4.15;;;;;;;21.47;53.60;100255.84;7308293;19;159533;-37
2022/05/08 09:17:54;;;;;;;20.55;3.88;;;;;;;21.49;53.22;100253.13;7313198;19;128991;-38
2022/05/08 09:20:26;;;;;;;23.35;3.50;;;;;;;21.49;53.76;100259.19;7312375;19;130405;-38
2022/05/08 09:23:19;;;;;;;21.42;4.07;;;;;;;21.50;53.80;100260.84;7310764;19;161875;-39
2022/05/08 09:25:53;;;;;;;21.42;3.92;;;;;;;21.46;53.50;100259.44;7311262;19;130426;-38
2022/05/08 09:28:20;;;;;;;15.73;3.17;;;;;;;21.46;53.02;100263.84;7312388;19;129427;-38
2022/05/08 09:31:01;;;;;;;25.13;4.43;;;;;;;21.52;53.58;100264.16;7311415;19;129287;-39
2022/05/08 09:33:35;;;;;;;23.83;4.03;;;;;;;21.52;53.81;100261.56;7311990;19;129860;-39
2022/05/08 09:36:05;;;;;;;21.92;3.97;;;;;;;21.41;53.48;100250.28;7312221;19;132902;-39
2022/05/08 09:38:45;;;;;;;19.48;3.78;;;;;;;21.49;53.50;100269.66;7313076;19;128857;-39
2022/05/08 09:41:12;;;;;;;14.50;3.08;;;;;;;21.48;54.08;100268.00;7311231;19;129401;-39
2022/05/08 09:43:40;;;;;;;20.75;3.90;;;;;;;21.50;52.86;100271.31;7311732;19;130173;-39
2022/05/08 09:46:06;;;;;;;42.97;6.03;;;;;;;21.49;52.89;100274.88;7309915;19;131719;-39
2022/05/08 09:48:33;;;;;;;21.33;4.18;;;;;;;21.49;53.70;100277.50;7306216;19;129340;-38
2022/05/08 09:51:00;;;;;;;26.10;4.43;;;;;;;21.47;53.64;100260.28;7307339;19;130076;-39
2022/05/08 09:53:26;;;;;;;19.15;3.35;;;;;;;21.51;53.28;100272.97;7311847;19;130095;-37
2022/05/08 09:55:56;;;;;;;19.10;3.63;;;;;;;21.54;53.50;100270.13;7312015;19;129233;-37
2022/05/08 09:58:22;;;;;;;18.08;3.63;;;;;;;21.53;53.19;100265.84;7310489;19;129552;-38
2022/05/08 10:00:51;;;;;;;10.73;3.10;;;;;;;21.54;53.92;100266.66;7309796;19;130742;-37
2022/05/08 10:03:17;;;;;;;19.40;3.47;;;;;;;21.54;54.02;100277.13;7310530;19;131300;-37
2022/05/08 10:05:43;;;;;;;13.30;3.28;;;;;;;21.51;53.15;100267.75;7309236;19;130294;-37
2022/05/08 10:08:10;;;;;;;19.37;3.60;;;;;;;21.50;53.84;100265.25;7312139;19;129293;-37
2022/05/08 10:13:56;;;;;;;13.60;3.38;;;;;;;21.53;54.26;100263.22;7310140;19;129563;-37
2022/05/08 10:16:46;;;;;;;20.95;3.83;;;;;;;21.55;53.78;100258.69;7309130;19;129532;-37
2022/05/08 10:19:17;;;;;;;25.67;4.18;;;;;;;21.52;53.99;100269.41;7311772;19;129171;-37
2022/05/08 10:21:55;;;;;;;17.92;3.60;;;;;;;21.57;54.14;100264.63;7309069;19;153973;-37
2022/05/08 10:24:33;;;;;;;16.60;3.60;;;;;;;21.51;54.32;100266.91;7309453;19;129420;-37
2022/05/08 10:27:24;;;;;;;20.25;4.03;;;;;;;21.53;53.87;100265.84;7309301;19;131152;-37
2022/05/08 10:29:49;;;;;;;9.85;3.08;;;;;;;21.52;53.76;100269.41;7307200;19;129282;-37
2022/05/08 10:32:33;;;;;;;29.43;5.00;;;;;;;21.52;54.43;100258.94;7309134;19;155455;-40
2022/05/08 10:35:10;;;;;;;20.42;4.00;;;;;;;21.56;53.94;100264.75;7308082;19;129261;-38
2022/05/08 10:37:42;;;;;;;20.02;4.10;;;;;;;21.54;54.12;100262.28;7310127;19;129804;-39
2022/05/08 10:40:23;;;;;;;19.40;4.13;;;;;;;21.56;53.99;100255.13;7309140;19;128954;-40
2022/05/08 10:42:49;;;;;;;44.42;5.60;;;;;;;21.54;53.13;100257.03;7308553;19;154306;-39
2022/05/08 10:45:30;;;;;;;25.75;4.45;;;;;;;21.59;54.08;100260.13;7305619;19;129102;-41
2022/05/08 10:47:56;;;;;;;19.80;3.50;;;;;;;21.57;53.43;100255.94;7308041;19;130375;-39
2022/05/08 10:50:22;;;;;;;23.37;4.13;;;;;;;21.58;54.21;100255.84;7309750;19;129141;-39
2022/05/08 10:52:49;;;;;;;22.88;4.43;;;;;;;21.56;54.37;100252.50;7309684;19;129256;-41
2022/05/08 10:55:16;;;;;;;23.42;4.03;;;;;;;21.51;53.70;100251.22;7306303;19;129660;-40
2022/05/08 10:57:43;;;;;;;17.30;3.40;;;;;;;21.47;53.36;100244.59;7309951;19;130520;-41
2022/05/08 11:00:10;;;;;;;;;;;;;;;21.68;54.28;100253.31;7315542;19;128839;-39
2022/05/08 11:02:42;;;;;;;42.53;6.53;;;;;;;21.61;53.88;100247.75;7314479;19;131406;-40
2022/05/08 11:05:09;;;;;;;27.95;4.15;;;;;;;21.61;53.08;100242.50;7313656;19;129320;-39
2022/05/08 11:07:36;;;;;;;22.75;4.47;;;;;;;21.59;53.40;100244.41;7315186;19;130376;-36
2022/05/08 11:10:02;;;;;;;15.85;3.53;;;;;;;21.60;53.27;100245.25;7313379;19;129243;-38
2022/05/08 11:12:28;;;;;;;31.58;5.57;;;;;;;21.59;53.98;100238.34;7315127;19;129099;-39
2022/05/08 11:15:09;;;;;;;24.88;4.30;;;;;;;21.61;54.25;100245.13;7312909;19;129758;-40
2022/05/08 11:17:34;;;;;;;19.63;4.28;;;;;;;21.56;53.33;100239.44;7314714;19;129157;-39
2022/05/08 11:19:59;;;;;;;25.85;4.30;;;;;;;21.51;53.42;100222.44;7314422;19;153818;-39
2022/05/08 11:22:24;;;;;;;29.60;5.50;;;;;;;21.59;54.13;100239.19;7314459;19;143317;-38
2022/05/08 11:24:50;;;;;;;12.80;3.22;;;;;;;21.56;53.63;100243.81;7312841;19;155549;-39
2022/05/08 11:27:15;;;;;;;26.90;4.45;;;;;;;21.55;53.61;100245.59;7315361;19;129575;-40
2022/05/08 11:29:50;;;;;;;21.53;4.10;;;;;;;21.59;54.13;100244.41;7311852;19;155013;-40